Terminal Aerodrome Forecast
Issued by NWS

Home | Current Version | Previous Version | Text Only | Print | Product List | Glossary On
Versions: 1 2 3 4 5 6 7 8 9 10 11 12 13 14 15
177
FTUS43 KAPX 162320
TAFTVC
TAF
KTVC 162320Z 1700/1724 13005KT P6SM SCT050 BKN200
     FM170900 14008KT 4SM -SHRA SCT025 OVC050
     FM171600 17010G18KT 5SM SHRA VCTS SCT012 OVC022CB=

USA.gov is the U.S. government's official web portal to all federal, state and local government web resources and services.